sensor_id;sensor_type;location;lat;lon;timestamp;temperature;humidity
15160;DHT22;7680;48.800;9.680;2023-03-01T00:02:12;-1.40;99.90
15160;DHT22;7680;48.800;9.680;2023-03-01T00:04:46;-1.30;99.90
15160;DHT22;7680;48.800;9.680;2023-03-01T00:07:19;-1.40;99.90
15160;DHT22;7680;48.800;9.680;2023-03-01T00:09:52;-1.40;99.90
15160;DHT22;7680;48.800;9.680;2023-03-01T00:12:25;-1.40;99.90
15160;DHT22;7680;48.800;9.680;2023-03-01T00:14:59;-1.40;99.90
15160;DHT22;7680;48.800;9.680;2023-03-01T00:17:33;-1.40;99.90
15160;DHT22;7680;48.800;9.680;2023-03-01T00:20:07;-1.40;99.90
15160;DHT22;7680;48.800;9.680;2023-03-01T00:22:41;-1.40;99.90
15160;DHT22;7680;48.800;9.680;2023-03-01T00:25:14;-1.50;99.90
15160;DHT22;7680;48.800;9.680;2023-03-01T00:27:47;-1.50;99.90
15160;DHT22;7680;48.800;9.680;2023-03-01T00:30:21;-1.50;99.90
15160;DHT22;7680;48.800;9.680;2023-03-01T00:32:55;-1.60;99.90
15160;DHT22;7680;48.800;9.680;2023-03-01T00:35:28;-1.60;99.90
15160;DHT22;7680;48.800;9.680;2023-03-01T00:38:02;-1.60;99.90
15160;DHT22;7680;48.800;9.680;2023-03-01T00:40:36;-1.60;99.90
15160;DHT22;7680;48.800;9.680;2023-03-01T00:43:09;-1.60;99.90
15160;DHT22;7680;48.800;9.680;2023-03-01T00:45:42;-1.60;99.90
15160;DHT22;7680;48.800;9.680;2023-03-01T00:48:17;-1.60;99.90
15160;DHT22;7680;48.800;9.680;2023-03-01T00:50:50;-1.60;99.90
15160;DHT22;7680;48.800;9.680;2023-03-01T00:53:23;-1.60;99.90
15160;DHT22;7680;48.800;9.680;2023-03-01T00:55:57;-1.70;99.90
15160;DHT22;7680;48.800;9.680;2023-03-01T00:58:30;-1.70;99.90
15160;DHT22;7680;48.800;9.680;2023-03-01T01:01:08;-1.70;99.90
15160;DHT22;7680;48.800;9.680;2023-03-01T01:03:52;-1.60;99.90
15160;DHT22;7680;48.800;9.680;2023-03-01T01:06:27;-1.70;99.90
15160;DHT22;7680;48.800;9.680;2023-03-01T01:09:04;-1.70;99.90
15160;DHT22;7680;48.800;9.680;2023-03-01T01:11:38;-1.60;99.90
15160;DHT22;7680;48.800;9.680;2023-03-01T01:14:11;-1.60;99.90
15160;DHT22;7680;48.800;9.680;2023-03-01T01:16:45;-1.50;99.90
15160;DHT22;7680;48.800;9.680;2023-03-01T01:19:19;-1.40;99.90
15160;DHT22;7680;48.800;9.680;2023-03-01T01:21:53;-1.40;99.90
15160;DHT22;7680;48.800;9.680;2023-03-01T01:24:26;-1.30;99.90
15160;DHT22;7680;48.800;9.680;2023-03-01T01:26:59;-1.30;99.90
15160;DHT22;7680;48.800;9.680;2023-03-01T01:29:32;-1.30;99.90
15160;DHT22;7680;48.800;9.680;2023-03-01T01:32:05;-1.30;99.90
15160;DHT22;7680;48.800;9.680;2023-03-01T01:34:39;-1.20;99.90
15160;DHT22;7680;48.800;9.680;2023-03-01T01:37:12;-1.20;99.90
15160;DHT22;7680;48.800;9.680;2023-03-01T01:39:45;-1.20;99.90
15160;DHT22;7680;48.800;9.680;2023-03-01T01:42:19;-1.20;99.90
15160;DHT22;7680;48.800;9.680;2023-03-01T01:45:26;-1.20;99.90
15160;DHT22;7680;48.800;9.680;2023-03-01T01:48:04;-1.20;99.90
15160;DHT22;7680;48.800;9.680;2023-03-01T01:50:41;-1.10;99.90
15160;DHT22;7680;48.800;9.680;2023-03-01T01:53:18;-1.10;99.90
15160;DHT22;7680;48.800;9.680;2023-03-01T01:55:55;-1.00;99.90
15160;DHT22;7680;48.800;9.680;2023-03-01T01:58:30;-0.90;99.90
15160;DHT22;7680;48.800;9.680;2023-03-01T02:01:04;-0.90;99.90
15160;DHT22;7680;48.800;9.680;2023-03-01T02:03:39;-0.80;99.90
15160;DHT22;7680;48.800;9.680;2023-03-01T02:06:19;-0.80;99.90
15160;DHT22;7680;48.800;9.680;2023-03-01T02:08:55;-0.70;99.90
15160;DHT22;7680;48.800;9.680;2023-03-01T02:11:33;-0.70;99.90
15160;DHT22;7680;48.800;9.680;2023-03-01T02:14:09;-0.60;99.90
15160;DHT22;7680;48.800;9.680;2023-03-01T02:16:42;-0.60;99.90
15160;DHT22;7680;48.800;9.680;2023-03-01T02:19:25;-0.50;99.90
15160;DHT22;7680;48.800;9.680;2023-03-01T02:22:11;-0.50;99.90
15160;DHT22;7680;48.800;9.680;2023-03-01T02:24:55;-0.50;99.90
15160;DHT22;7680;48.800;9.680;2023-03-01T02:27:40;-0.40;99.90
15160;DHT22;7680;48.800;9.680;2023-03-01T02:30:22;-0.40;99.90
15160;DHT22;7680;48.800;9.680;2023-03-01T02:32:56;-0.40;99.90
15160;DHT22;7680;48.800;9.680;2023-03-01T02:35:37;-0.40;99.90
15160;DHT22;7680;48.800;9.680;2023-03-01T02:38:11;-0.40;99.90
15160;DHT22;7680;48.800;9.680;2023-03-01T02:40:44;-0.30;99.90
15160;DHT22;7680;48.800;9.680;2023-03-01T02:43:19;-0.30;99.90
15160;DHT22;7680;48.800;9.680;2023-03-01T02:45:59;-0.30;99.90
15160;DHT22;7680;48.800;9.680;2023-03-01T02:48:42;-0.20;99.90
15160;DHT22;7680;48.800;9.680;2023-03-01T02:51:28;-0.30;99.90
15160;DHT22;7680;48.800;9.680;2023-03-01T02:54:14;-0.30;99.90
15160;DHT22;7680;48.800;9.680;2023-03-01T02:56:51;-0.30;99.90
15160;DHT22;7680;48.800;9.680;2023-03-01T02:59:26;-0.30;99.90
15160;DHT22;7680;48.800;9.680;2023-03-01T03:02:03;-0.30;99.90
15160;DHT22;7680;48.800;9.680;2023-03-01T03:04:36;-0.30;99.90
15160;DHT22;7680;48.800;9.680;2023-03-01T03:07:09;-0.30;99.90
15160;DHT22;7680;48.800;9.680;2023-03-01T03:09:42;-0.30;99.90
15160;DHT22;7680;48.800;9.680;2023-03-01T03:12:15;-0.20;99.90
15160;DHT22;7680;48.800;9.680;2023-03-01T03:14:48;-0.10;99.90
15160;DHT22;7680;48.800;9.680;2023-03-01T03:17:22;-0.10;99.90
15160;DHT22;7680;48.800;9.680;2023-03-01T03:19:56;0.00;99.90
15160;DHT22;7680;48.800;9.680;2023-03-01T03:22:29;0.00;99.90
15160;DHT22;7680;48.800;9.680;2023-03-01T03:25:02;-0.10;99.90
15160;DHT22;7680;48.800;9.680;2023-03-01T03:27:35;-0.10;99.90
15160;DHT22;7680;48.800;9.680;2023-03-01T03:30:10;0.00;99.90
15160;DHT22;7680;48.800;9.680;2023-03-01T03:32:47;0.00;99.90
15160;DHT22;7680;48.800;9.680;2023-03-01T03:35:26;0.00;99.90
15160;DHT22;7680;48.800;9.680;2023-03-01T03:38:04;0.00;99.90
15160;DHT22;7680;48.800;9.680;2023-03-01T03:40:40;0.00;99.90
15160;DHT22;7680;48.800;9.680;2023-03-01T03:43:15;-0.10;99.90
15160;DHT22;7680;48.800;9.680;2023-03-01T03:45:51;-0.10;99.90
15160;DHT22;7680;48.800;9.680;2023-03-01T03:48:27;-0.10;99.90
15160;DHT22;7680;48.800;9.680;2023-03-01T03:51:00;0.00;99.90
15160;DHT22;7680;48.800;9.680;2023-03-01T03:53:34;0.10;99.90
15160;DHT22;7680;48.800;9.680;2023-03-01T03:56:07;0.10;99.90
15160;DHT22;7680;48.800;9.680;2023-03-01T03:58:40;0.20;99.90
15160;DHT22;7680;48.800;9.680;2023-03-01T04:01:13;0.10;99.90
15160;DHT22;7680;48.800;9.680;2023-03-01T04:03:48;0.20;99.90
15160;DHT22;7680;48.800;9.680;2023-03-01T04:06:26;0.20;99.90
15160;DHT22;7680;48.800;9.680;2023-03-01T04:08:59;0.20;99.90
15160;DHT22;7680;48.800;9.680;2023-03-01T04:11:34;0.30;99.90
15160;DHT22;7680;48.800;9.680;2023-03-01T04:14:07;0.30;99.90
15160;DHT22;7680;48.800;9.680;2023-03-01T04:16:40;0.30;99.90
15160;DHT22;7680;48.800;9.680;2023-03-01T04:19:15;0.30;99.90
15160;DHT22;7680;48.800;9.680;2023-03-01T04:21:48;0.30;99.90
15160;DHT22;7680;48.800;9.680;2023-03-01T04:24:21;0.30;99.90
15160;DHT22;7680;48.800;9.680;2023-03-01T04:26:54;0.30;99.90
15160;DHT22;7680;48.800;9.680;2023-03-01T04:29:27;0.30;99.90
15160;DHT22;7680;48.800;9.680;2023-03-01T04:32:01;0.30;99.90
15160;DHT22;7680;48.800;9.680;2023-03-01T04:34:36;0.30;99.90
15160;DHT22;7680;48.800;9.680;2023-03-01T04:37:09;0.30;99.90
15160;DHT22;7680;48.800;9.680;2023-03-01T04:39:42;0.30;99.90
15160;DHT22;7680;48.800;9.680;2023-03-01T04:42:17;0.30;99.90
15160;DHT22;7680;48.800;9.680;2023-03-01T04:44:51;0.30;99.90
15160;DHT22;7680;48.800;9.680;2023-03-01T04:47:24;0.30;99.90
15160;DHT22;7680;48.800;9.680;2023-03-01T04:49:58;0.30;99.90
15160;DHT22;7680;48.800;9.680;2023-03-01T04:52:31;0.40;99.90
15160;DHT22;7680;48.800;9.680;2023-03-01T04:55:06;0.40;99.90
15160;DHT22;7680;48.800;9.680;2023-03-01T04:57:39;0.50;99.90
15160;DHT22;7680;48.800;9.680;2023-03-01T05:00:14;0.40;99.90
15160;DHT22;7680;48.800;9.680;2023-03-01T05:02:55;0.40;99.90
15160;DHT22;7680;48.800;9.680;2023-03-01T05:05:32;0.50;99.90
15160;DHT22;7680;48.800;9.680;2023-03-01T05:08:07;0.50;99.90
15160;DHT22;7680;48.800;9.680;2023-03-01T05:10:50;0.50;99.90
15160;DHT22;7680;48.800;9.680;2023-03-01T05:13:24;0.50;99.90
15160;DHT22;7680;48.800;9.680;2023-03-01T05:15:59;0.60;99.90
15160;DHT22;7680;48.800;9.680;2023-03-01T05:18:34;0.60;99.90
15160;DHT22;7680;48.800;9.680;2023-03-01T05:21:10;0.60;99.90
15160;DHT22;7680;48.800;9.680;2023-03-01T05:23:44;0.60;99.90
15160;DHT22;7680;48.800;9.680;2023-03-01T05:26:20;0.60;99.90
15160;DHT22;7680;48.800;9.680;2023-03-01T05:28:59;0.50;99.90
15160;DHT22;7680;48.800;9.680;2023-03-01T05:31:32;0.50;99.90
15160;DHT22;7680;48.800;9.680;2023-03-01T05:34:05;0.50;99.90
15160;DHT22;7680;48.800;9.680;2023-03-01T05:36:40;0.40;99.90
15160;DHT22;7680;48.800;9.680;2023-03-01T05:39:13;0.50;99.90
15160;DHT22;7680;48.800;9.680;2023-03-01T05:41:46;0.50;99.90
15160;DHT22;7680;48.800;9.680;2023-03-01T05:44:20;0.50;99.90
15160;DHT22;7680;48.800;9.680;2023-03-01T05:46:53;0.50;99.90
15160;DHT22;7680;48.800;9.680;2023-03-01T05:49:28;0.60;99.90
15160;DHT22;7680;48.800;9.680;2023-03-01T05:52:03;0.50;99.90
15160;DHT22;7680;48.800;9.680;2023-03-01T05:54:36;0.60;99.90
15160;DHT22;7680;48.800;9.680;2023-03-01T05:57:10;0.60;99.90
15160;DHT22;7680;48.800;9.680;2023-03-01T05:59:43;0.60;99.90
15160;DHT22;7680;48.800;9.680;2023-03-01T06:02:16;0.60;99.90
15160;DHT22;7680;48.800;9.680;2023-03-01T06:04:50;0.50;99.90
15160;DHT22;7680;48.800;9.680;2023-03-01T06:07:25;0.50;99.90
15160;DHT22;7680;48.800;9.680;2023-03-01T06:09:58;0.60;99.90
15160;DHT22;7680;48.800;9.680;2023-03-01T06:12:32;0.40;99.90
15160;DHT22;7680;48.800;9.680;2023-03-01T06:15:06;0.40;99.90
15160;DHT22;7680;48.800;9.680;2023-03-01T06:17:43;0.40;99.90
15160;DHT22;7680;48.800;9.680;2023-03-01T06:20:19;0.30;99.90
15160;DHT22;7680;48.800;9.680;2023-03-01T06:22:54;0.20;99.90
15160;DHT22;7680;48.800;9.680;2023-03-01T06:25:27;0.10;99.90
15160;DHT22;7680;48.800;9.680;2023-03-01T06:28:01;0.20;99.90
15160;DHT22;7680;48.800;9.680;2023-03-01T06:30:34;0.20;99.90
15160;DHT22;7680;48.800;9.680;2023-03-01T06:33:07;0.10;99.90
15160;DHT22;7680;48.800;9.680;2023-03-01T06:35:40;0.20;99.90
15160;DHT22;7680;48.800;9.680;2023-03-01T06:38:14;0.20;99.90
15160;DHT22;7680;48.800;9.680;2023-03-01T06:40:54;0.30;99.90
15160;DHT22;7680;48.800;9.680;2023-03-01T06:43:28;0.30;99.90
15160;DHT22;7680;48.800;9.680;2023-03-01T06:46:04;0.30;99.90
15160;DHT22;7680;48.800;9.680;2023-03-01T06:48:38;0.40;99.90
15160;DHT22;7680;48.800;9.680;2023-03-01T06:51:11;0.50;99.90
15160;DHT22;7680;48.800;9.680;2023-03-01T06:53:47;0.70;99.90
15160;DHT22;7680;48.800;9.680;2023-03-01T06:56:20;0.90;99.90
15160;DHT22;7680;48.800;9.680;2023-03-01T06:58:53;0.90;99.90
15160;DHT22;7680;48.800;9.680;2023-03-01T07:01:26;1.10;99.90
15160;DHT22;7680;48.800;9.680;2023-03-01T07:03:59;1.20;99.90
15160;DHT22;7680;48.800;9.680;2023-03-01T07:06:32;1.50;99.90
15160;DHT22;7680;48.800;9.680;2023-03-01T07:09:07;1.40;99.90
15160;DHT22;7680;48.800;9.680;2023-03-01T07:11:40;1.50;99.90
15160;DHT22;7680;48.800;9.680;2023-03-01T07:14:13;1.60;99.90
15160;DHT22;7680;48.800;9.680;2023-03-01T07:16:46;1.60;99.90
15160;DHT22;7680;48.800;9.680;2023-03-01T07:19:20;1.70;99.90
15160;DHT22;7680;48.800;9.680;2023-03-01T07:21:53;2.00;99.90
15160;DHT22;7680;48.800;9.680;2023-03-01T07:24:28;2.00;99.90
15160;DHT22;7680;48.800;9.680;2023-03-01T07:27:02;1.90;99.90
15160;DHT22;7680;48.800;9.680;2023-03-01T07:29:35;2.10;99.90
15160;DHT22;7680;48.800;9.680;2023-03-01T07:32:09;2.30;99.90
15160;DHT22;7680;48.800;9.680;2023-03-01T07:34:43;2.40;99.90
15160;DHT22;7680;48.800;9.680;2023-03-01T07:37:16;2.40;99.90
15160;DHT22;7680;48.800;9.680;2023-03-01T07:39:51;2.40;99.90
15160;DHT22;7680;48.800;9.680;2023-03-01T07:42:24;2.40;99.90
15160;DHT22;7680;48.800;9.680;2023-03-01T07:44:57;2.40;99.90
15160;DHT22;7680;48.800;9.680;2023-03-01T07:47:30;2.10;99.90
15160;DHT22;7680;48.800;9.680;2023-03-01T07:50:04;2.20;99.90
15160;DHT22;7680;48.800;9.680;2023-03-01T07:52:38;2.50;99.90
15160;DHT22;7680;48.800;9.680;2023-03-01T07:55:13;2.60;99.90
15160;DHT22;7680;48.800;9.680;2023-03-01T07:57:46;2.80;99.90
15160;DHT22;7680;48.800;9.680;2023-03-01T08:00:19;2.80;99.90
15160;DHT22;7680;48.800;9.680;2023-03-01T08:02:53;2.80;99.90
15160;DHT22;7680;48.800;9.680;2023-03-01T08:05:26;3.10;99.90
15160;DHT22;7680;48.800;9.680;2023-03-01T08:07:59;3.00;99.90
15160;DHT22;7680;48.800;9.680;2023-03-01T08:10:33;2.80;99.90
15160;DHT22;7680;48.800;9.680;2023-03-01T08:13:07;2.80;99.90
15160;DHT22;7680;48.800;9.680;2023-03-01T08:15:40;2.80;99.90
15160;DHT22;7680;48.800;9.680;2023-03-01T08:18:13;3.00;99.90
15160;DHT22;7680;48.800;9.680;2023-03-01T08:20:46;3.00;99.90
15160;DHT22;7680;48.800;9.680;2023-03-01T08:23:20;2.70;99.90
15160;DHT22;7680;48.800;9.680;2023-03-01T08:25:54;2.80;99.90
15160;DHT22;7680;48.800;9.680;2023-03-01T08:28:27;3.00;99.90
15160;DHT22;7680;48.800;9.680;2023-03-01T08:31:01;2.70;99.90
15160;DHT22;7680;48.800;9.680;2023-03-01T08:33:34;2.90;99.90
15160;DHT22;7680;48.800;9.680;2023-03-01T08:36:07;3.40;99.90
15160;DHT22;7680;48.800;9.680;2023-03-01T08:38:40;3.20;99.60
15160;DHT22;7680;48.800;9.680;2023-03-01T08:41:15;3.30;99.90
15160;DHT22;7680;48.800;9.680;2023-03-01T08:43:49;3.40;99.50
15160;DHT22;7680;48.800;9.680;2023-03-01T08:46:22;3.70;99.50
15160;DHT22;7680;48.800;9.680;2023-03-01T08:48:56;3.90;98.70
15160;DHT22;7680;48.800;9.680;2023-03-01T08:51:29;3.60;98.70
15160;DHT22;7680;48.800;9.680;2023-03-01T08:54:04;3.70;98.60
15160;DHT22;7680;48.800;9.680;2023-03-01T08:56:39;3.40;98.80
15160;DHT22;7680;48.800;9.680;2023-03-01T08:59:14;3.70;99.30
15160;DHT22;7680;48.800;9.680;2023-03-01T09:01:48;3.70;98.30
15160;DHT22;7680;48.800;9.680;2023-03-01T09:04:22;4.10;98.60
15160;DHT22;7680;48.800;9.680;2023-03-01T09:06:55;4.20;97.90
15160;DHT22;7680;48.800;9.680;2023-03-01T09:09:28;4.00;97.60
15160;DHT22;7680;48.800;9.680;2023-03-01T09:12:03;4.10;98.40
15160;DHT22;7680;48.800;9.680;2023-03-01T09:14:36;4.30;97.70
15160;DHT22;7680;48.800;9.680;2023-03-01T09:17:10;4.50;97.40
15160;DHT22;7680;48.800;9.680;2023-03-01T09:19:43;4.50;97.10
15160;DHT22;7680;48.800;9.680;2023-03-01T09:22:16;4.80;96.90
15160;DHT22;7680;48.800;9.680;2023-03-01T09:24:50;4.70;96.70
15160;DHT22;7680;48.800;9.680;2023-03-01T09:27:24;4.70;97.60
15160;DHT22;7680;48.800;9.680;2023-03-01T09:29:57;4.90;96.70
15160;DHT22;7680;48.800;9.680;2023-03-01T09:32:31;4.90;96.30
15160;DHT22;7680;48.800;9.680;2023-03-01T09:35:05;5.00;96.20
15160;DHT22;7680;48.800;9.680;2023-03-01T09:37:39;5.10;96.30
15160;DHT22;7680;48.800;9.680;2023-03-01T09:40:17;5.10;95.70
15160;DHT22;7680;48.800;9.680;2023-03-01T09:42:58;5.30;95.90
15160;DHT22;7680;48.800;9.680;2023-03-01T09:45:36;5.70;95.30
15160;DHT22;7680;48.800;9.680;2023-03-01T09:48:15;5.70;95.10
15160;DHT22;7680;48.800;9.680;2023-03-01T09:50:51;5.80;94.70
15160;DHT22;7680;48.800;9.680;2023-03-01T09:53:30;5.70;95.50
15160;DHT22;7680;48.800;9.680;2023-03-01T09:56:15;5.70;95.00
15160;DHT22;7680;48.800;9.680;2023-03-01T09:58:59;5.40;95.10
15160;DHT22;7680;48.800;9.680;2023-03-01T10:01:43;5.60;96.10
15160;DHT22;7680;48.800;9.680;2023-03-01T10:04:37;5.80;95.10
15160;DHT22;7680;48.800;9.680;2023-03-01T10:07:22;5.80;94.80
15160;DHT22;7680;48.800;9.680;2023-03-01T10:10:00;5.90;94.60
15160;DHT22;7680;48.800;9.680;2023-03-01T10:12:39;6.00;93.90
15160;DHT22;7680;48.800;9.680;2023-03-01T10:15:18;5.80;94.10
15160;DHT22;7680;48.800;9.680;2023-03-01T10:17:57;5.90;94.10
15160;DHT22;7680;48.800;9.680;2023-03-01T10:20:43;5.90;93.80
15160;DHT22;7680;48.800;9.680;2023-03-01T10:23:19;6.00;94.10
15160;DHT22;7680;48.800;9.680;2023-03-01T10:26:02;6.20;93.80
15160;DHT22;7680;48.800;9.680;2023-03-01T10:28:50;6.10;94.00
15160;DHT22;7680;48.800;9.680;2023-03-01T10:31:37;6.20;93.80
15160;DHT22;7680;48.800;9.680;2023-03-01T10:34:14;6.10;93.60
15160;DHT22;7680;48.800;9.680;2023-03-01T10:36:50;5.80;93.60
15160;DHT22;7680;48.800;9.680;2023-03-01T10:39:25;6.30;93.20
15160;DHT22;7680;48.800;9.680;2023-03-01T10:42:00;6.10;93.10
15160;DHT22;7680;48.800;9.680;2023-03-01T10:44:41;5.90;93.50
15160;DHT22;7680;48.800;9.680;2023-03-01T10:47:22;6.30;93.50
15160;DHT22;7680;48.800;9.680;2023-03-01T10:50:02;6.60;93.30
15160;DHT22;7680;48.800;9.680;2023-03-01T10:52:37;6.40;93.00
15160;DHT22;7680;48.800;9.680;2023-03-01T10:55:24;6.00;93.40
15160;DHT22;7680;48.800;9.680;2023-03-01T10:58:07;6.50;93.20
15160;DHT22;7680;48.800;9.680;2023-03-01T11:00:50;6.10;93.00
15160;DHT22;7680;48.800;9.680;2023-03-01T11:03:27;6.10;93.20
15160;DHT22;7680;48.800;9.680;2023-03-01T11:06:05;6.30;93.50
15160;DHT22;7680;48.800;9.680;2023-03-01T11:08:47;6.40;93.20
15160;DHT22;7680;48.800;9.680;2023-03-01T11:11:29;6.40;93.60
15160;DHT22;7680;48.800;9.680;2023-03-01T11:14:07;6.30;93.30
15160;DHT22;7680;48.800;9.680;2023-03-01T11:17:00;6.20;93.70
15160;DHT22;7680;48.800;9.680;2023-03-01T11:19:36;6.50;93.70
15160;DHT22;7680;48.800;9.680;2023-03-01T11:22:12;6.70;93.30
15160;DHT22;7680;48.800;9.680;2023-03-01T11:24:49;6.90;93.90
15160;DHT22;7680;48.800;9.680;2023-03-01T11:27:43;7.10;93.50
15160;DHT22;7680;48.800;9.680;2023-03-01T11:30:21;7.10;93.40
15160;DHT22;7680;48.800;9.680;2023-03-01T11:33:04;6.90;92.60
15160;DHT22;7680;48.800;9.680;2023-03-01T11:35:49;6.70;93.20
15160;DHT22;7680;48.800;9.680;2023-03-01T11:38:30;6.80;93.10
15160;DHT22;7680;48.800;9.680;2023-03-01T11:41:10;6.80;93.40
15160;DHT22;7680;48.800;9.680;2023-03-01T11:43:50;6.90;93.00
15160;DHT22;7680;48.800;9.680;2023-03-01T11:46:46;6.80;93.40
15160;DHT22;7680;48.800;9.680;2023-03-01T11:49:51;6.80;93.50
15160;DHT22;7680;48.800;9.680;2023-03-01T11:52:40;7.00;93.10
15160;DHT22;7680;48.800;9.680;2023-03-01T11:55:50;6.90;92.90
15160;DHT22;7680;48.800;9.680;2023-03-01T11:58:44;6.80;93.20
15160;DHT22;7680;48.800;9.680;2023-03-01T12:01:44;6.80;93.20
15160;DHT22;7680;48.800;9.680;2023-03-01T12:04:54;6.70;93.30
15160;DHT22;7680;48.800;9.680;2023-03-01T12:07:44;6.80;92.90
15160;DHT22;7680;48.800;9.680;2023-03-01T12:10:25;6.90;93.10
15160;DHT22;7680;48.800;9.680;2023-03-01T12:13:20;7.00;93.40
15160;DHT22;7680;48.800;9.680;2023-03-01T12:16:19;7.20;93.00
15160;DHT22;7680;48.800;9.680;2023-03-01T12:19:29;7.30;92.70
15160;DHT22;7680;48.800;9.680;2023-03-01T12:22:25;7.30;92.40
15160;DHT22;7680;48.800;9.680;2023-03-01T12:25:21;7.10;92.20
15160;DHT22;7680;48.800;9.680;2023-03-01T12:28:08;7.10;92.70
15160;DHT22;7680;48.800;9.680;2023-03-01T12:31:08;7.20;93.00
15160;DHT22;7680;48.800;9.680;2023-03-01T12:34:11;7.30;92.60
15160;DHT22;7680;48.800;9.680;2023-03-01T12:37:17;7.40;92.60
15160;DHT22;7680;48.800;9.680;2023-03-01T12:40:14;7.60;92.10
15160;DHT22;7680;48.800;9.680;2023-03-01T12:43:02;7.60;92.20
15160;DHT22;7680;48.800;9.680;2023-03-01T12:45:50;7.80;92.30
15160;DHT22;7680;48.800;9.680;2023-03-01T12:48:40;7.70;91.60
15160;DHT22;7680;48.800;9.680;2023-03-01T12:51:17;7.50;91.80
15160;DHT22;7680;48.800;9.680;2023-03-01T12:53:54;7.40;92.30
15160;DHT22;7680;48.800;9.680;2023-03-01T12:56:32;7.60;92.20
15160;DHT22;7680;48.800;9.680;2023-03-01T12:59:15;7.60;92.10
15160;DHT22;7680;48.800;9.680;2023-03-01T13:01:54;7.70;92.00
15160;DHT22;7680;48.800;9.680;2023-03-01T13:04:37;7.70;92.10
15160;DHT22;7680;48.800;9.680;2023-03-01T13:07:28;7.60;92.30
15160;DHT22;7680;48.800;9.680;2023-03-01T13:10:20;7.60;92.00
15160;DHT22;7680;48.800;9.680;2023-03-01T13:13:13;7.60;92.30
15160;DHT22;7680;48.800;9.680;2023-03-01T13:15:52;7.60;92.10
15160;DHT22;7680;48.800;9.680;2023-03-01T13:18:30;7.60;92.10
15160;DHT22;7680;48.800;9.680;2023-03-01T13:21:04;7.60;92.30
15160;DHT22;7680;48.800;9.680;2023-03-01T13:23:39;7.60;92.20
15160;DHT22;7680;48.800;9.680;2023-03-01T13:26:15;7.60;92.30
15160;DHT22;7680;48.800;9.680;2023-03-01T13:28:54;7.60;92.30
15160;DHT22;7680;48.800;9.680;2023-03-01T13:31:59;7.50;92.50
15160;DHT22;7680;48.800;9.680;2023-03-01T13:34:46;7.60;92.50
15160;DHT22;7680;48.800;9.680;2023-03-01T13:37:37;7.70;92.30
15160;DHT22;7680;48.800;9.680;2023-03-01T13:43:32;7.60;92.40
15160;DHT22;7680;48.800;9.680;2023-03-01T13:46:11;7.60;92.70
15160;DHT22;7680;48.800;9.680;2023-03-01T13:48:51;7.70;92.00
15160;DHT22;7680;48.800;9.680;2023-03-01T13:51:27;7.60;92.60
15160;DHT22;7680;48.800;9.680;2023-03-01T13:54:00;7.70;92.90
15160;DHT22;7680;48.800;9.680;2023-03-01T13:56:36;7.60;92.60
15160;DHT22;7680;48.800;9.680;2023-03-01T13:59:16;7.60;92.60
15160;DHT22;7680;48.800;9.680;2023-03-01T14:01:56;7.60;92.30
15160;DHT22;7680;48.800;9.680;2023-03-01T14:04:32;7.70;92.10
15160;DHT22;7680;48.800;9.680;2023-03-01T14:07:12;7.60;92.10
15160;DHT22;7680;48.800;9.680;2023-03-01T14:09:47;7.70;92.70
15160;DHT22;7680;48.800;9.680;2023-03-01T14:12:36;7.80;92.30
15160;DHT22;7680;48.800;9.680;2023-03-01T14:15:17;7.70;91.90
15160;DHT22;7680;48.800;9.680;2023-03-01T14:17:58;7.90;91.90
15160;DHT22;7680;48.800;9.680;2023-03-01T14:20:37;7.80;91.80
15160;DHT22;7680;48.800;9.680;2023-03-01T14:23:13;7.80;92.10
15160;DHT22;7680;48.800;9.680;2023-03-01T14:25:49;7.90;92.10
15160;DHT22;7680;48.800;9.680;2023-03-01T14:28:25;7.90;92.20
15160;DHT22;7680;48.800;9.680;2023-03-01T14:31:01;8.10;91.80
15160;DHT22;7680;48.800;9.680;2023-03-01T14:33:36;8.20;91.60
15160;DHT22;7680;48.800;9.680;2023-03-01T14:36:13;8.00;91.50
15160;DHT22;7680;48.800;9.680;2023-03-01T14:38:47;7.90;91.90
15160;DHT22;7680;48.800;9.680;2023-03-01T14:41:22;7.90;91.90
15160;DHT22;7680;48.800;9.680;2023-03-01T14:44:00;8.00;91.80
15160;DHT22;7680;48.800;9.680;2023-03-01T14:46:35;8.10;91.60
15160;DHT22;7680;48.800;9.680;2023-03-01T14:49:13;8.20;91.10
15160;DHT22;7680;48.800;9.680;2023-03-01T14:51:52;8.10;91.10
15160;DHT22;7680;48.800;9.680;2023-03-01T14:54:39;8.10;91.20
15160;DHT22;7680;48.800;9.680;2023-03-01T14:57:15;8.30;91.10
15160;DHT22;7680;48.800;9.680;2023-03-01T14:59:50;8.30;91.20
15160;DHT22;7680;48.800;9.680;2023-03-01T15:02:27;8.30;91.20
15160;DHT22;7680;48.800;9.680;2023-03-01T15:05:04;8.10;91.20
15160;DHT22;7680;48.800;9.680;2023-03-01T15:07:40;8.10;91.60
15160;DHT22;7680;48.800;9.680;2023-03-01T15:10:22;8.10;91.20
15160;DHT22;7680;48.800;9.680;2023-03-01T15:13:09;7.90;91.30
15160;DHT22;7680;48.800;9.680;2023-03-01T15:15:44;7.80;91.40
15160;DHT22;7680;48.800;9.680;2023-03-01T15:18:20;7.80;91.30
15160;DHT22;7680;48.800;9.680;2023-03-01T15:21:06;7.90;91.40
15160;DHT22;7680;48.800;9.680;2023-03-01T15:23:41;7.90;91.10
15160;DHT22;7680;48.800;9.680;2023-03-01T15:26:23;7.90;91.40
15160;DHT22;7680;48.800;9.680;2023-03-01T15:28:58;7.90;91.30
15160;DHT22;7680;48.800;9.680;2023-03-01T15:31:35;7.80;91.20
15160;DHT22;7680;48.800;9.680;2023-03-01T15:34:22;7.90;91.30
15160;DHT22;7680;48.800;9.680;2023-03-01T15:36:59;7.80;91.40
15160;DHT22;7680;48.800;9.680;2023-03-01T15:39:36;7.80;91.60
15160;DHT22;7680;48.800;9.680;2023-03-01T15:42:12;8.00;91.60
15160;DHT22;7680;48.800;9.680;2023-03-01T15:44:48;8.00;91.60
15160;DHT22;7680;48.800;9.680;2023-03-01T15:47:25;8.00;91.30
15160;DHT22;7680;48.800;9.680;2023-03-01T15:50:01;7.80;91.60
15160;DHT22;7680;48.800;9.680;2023-03-01T15:52:39;7.70;91.90
15160;DHT22;7680;48.800;9.680;2023-03-01T15:55:16;7.70;91.90
15160;DHT22;7680;48.800;9.680;2023-03-01T15:57:58;7.60;91.90
15160;DHT22;7680;48.800;9.680;2023-03-01T16:00:33;7.60;92.00
15160;DHT22;7680;48.800;9.680;2023-03-01T16:03:06;7.60;92.10
15160;DHT22;7680;48.800;9.680;2023-03-01T16:05:40;7.60;92.10
15160;DHT22;7680;48.800;9.680;2023-03-01T16:08:15;7.50;92.20
15160;DHT22;7680;48.800;9.680;2023-03-01T16:10:49;7.60;92.20
15160;DHT22;7680;48.800;9.680;2023-03-01T16:13:23;7.60;92.30
15160;DHT22;7680;48.800;9.680;2023-03-01T16:15:59;7.60;92.00
15160;DHT22;7680;48.800;9.680;2023-03-01T16:18:32;7.50;92.50
15160;DHT22;7680;48.800;9.680;2023-03-01T16:21:05;7.40;92.60
15160;DHT22;7680;48.800;9.680;2023-03-01T16:23:40;7.30;92.60
15160;DHT22;7680;48.800;9.680;2023-03-01T16:26:13;7.30;92.60
15160;DHT22;7680;48.800;9.680;2023-03-01T16:28:47;7.30;92.60
15160;DHT22;7680;48.800;9.680;2023-03-01T16:31:20;7.20;92.50
15160;DHT22;7680;48.800;9.680;2023-03-01T16:33:54;7.10;92.40
15160;DHT22;7680;48.800;9.680;2023-03-01T16:36:28;7.10;92.60
15160;DHT22;7680;48.800;9.680;2023-03-01T16:39:02;7.00;92.40
15160;DHT22;7680;48.800;9.680;2023-03-01T16:41:36;7.00;92.60
15160;DHT22;7680;48.800;9.680;2023-03-01T16:44:09;6.90;93.00
15160;DHT22;7680;48.800;9.680;2023-03-01T16:46:42;6.80;92.80
15160;DHT22;7680;48.800;9.680;2023-03-01T16:49:15;6.70;92.80
15160;DHT22;7680;48.800;9.680;2023-03-01T16:51:48;6.60;93.10
15160;DHT22;7680;48.800;9.680;2023-03-01T16:54:23;6.60;93.10
15160;DHT22;7680;48.800;9.680;2023-03-01T16:56:56;6.60;93.30
15160;DHT22;7680;48.800;9.680;2023-03-01T16:59:29;6.50;93.00
15160;DHT22;7680;48.800;9.680;2023-03-01T17:02:02;6.40;93.20
15160;DHT22;7680;48.800;9.680;2023-03-01T17:04:37;6.40;93.20
15160;DHT22;7680;48.800;9.680;2023-03-01T17:07:10;6.30;93.30